Messwerte Cressier

Temperatur

Temperatur
°C
1637902800 6.00 6.00
1637906400 7.00 7.00
1637910000 8.00 8.00
1637913600 9.00 9.00
1637917200 10.00 10.00
1637920800 11.00 11.00
1637924400 12.00 12.00
1637928000 13.00 13.00 3.7
1637931600 14.00 14.00 3.9
1637935200 15.00 15.00 4.2
1637938800 16.00 16.00 3.9
1637942400 17.00 17.00 3.9
1637946000 18.00 18.00 3.8
1637949600 19.00 19.00 3.5
1637953200 20.00 20.00 3.0
1637956800 21.00 21.00 3.0
1637960400 22.00 22.00 3.0
1637964000 23.00 23.00 2.9
1637967600 0.00 0.00 3.1
1637971200 1.00 1.00 3.5
1637974800 2.00 2.00 3.4
1637978400 3.00 3.00 2.8
1637982000 4.00 4.00 1.8
1637985600 5.00 5.00 2.3

Sonnenschein

Sonnenscheindauer
min
1637902800 6.00 5.00 - 6.00
1637906400 7.00 6.00 - 7.00
1637910000 8.00 7.00 - 8.00
1637913600 9.00 8.00 - 9.00
1637917200 10.00 9.00 - 10.00
1637920800 11.00 10.00 - 11.00
1637924400 12.00 11.00 - 12.00
1637928000 13.00 12.00 - 13.00
1637931600 14.00 13.00 - 14.00 0
1637935200 15.00 14.00 - 15.00 0
1637938800 16.00 15.00 - 16.00 0
1637942400 17.00 16.00 - 17.00
1637946000 18.00 17.00 - 18.00
1637949600 19.00 18.00 - 19.00 0
1637953200 20.00 19.00 - 20.00 0
1637956800 21.00 20.00 - 21.00 0
1637960400 22.00 21.00 - 22.00 0
1637964000 23.00 22.00 - 23.00 0
1637967600 0.00 23.00 - 0.00 0
1637971200 1.00 0.00 - 1.00 0
1637974800 2.00 1.00 - 2.00 0
1637978400 3.00 2.00 - 3.00 0
1637982000 4.00 3.00 - 4.00 0
1637985600 5.00 4.00 - 5.00 0

Aktuellste Messwerte

Wettercharakter
Wetter: bedeckt, wenig Regen
Temperatur
2.3 °C
Feuchtigkeit
98 %
Wind
28 km/hWindrichtung: Südwest
Böen
53 km/h
Niederschlag
0.2 mm
Sonne
0 min
Luftdruck
993.2 hPa
Globalstrahlung
0 W/m²
Messzeit: 27. November 2021, 5.00Datenquelle: MeteoSchweiz

Weitere Messstationen in der Nähe

Messstation Temperatur Entfernung
Neuenstadt 2.2 °C 2 km
Chaumont -1.9 °C 7 km
Chasseral -5.0 °C 9 km
Neuenburg 1.8 °C 11 km
Courtelary 1.2 °C 14 km
Mühleberg 0.8 °C 18 km
La Chaux-de-Fonds -0.4 °C 21 km

Niederschlag

Niederschlagsmenge
mm
1637902800 6.00 5.00 - 6.00
1637906400 7.00 6.00 - 7.00
1637910000 8.00 7.00 - 8.00
1637913600 9.00 8.00 - 9.00
1637917200 10.00 9.00 - 10.00
1637920800 11.00 10.00 - 11.00
1637924400 12.00 11.00 - 12.00
1637928000 13.00 12.00 - 13.00 0.0
1637931600 14.00 13.00 - 14.00 0.0
1637935200 15.00 14.00 - 15.00 0.0
1637938800 16.00 15.00 - 16.00 0.0
1637942400 17.00 16.00 - 17.00
1637946000 18.00 17.00 - 18.00 0.0
1637949600 19.00 18.00 - 19.00 0.0
1637953200 20.00 19.00 - 20.00 0.2
1637956800 21.00 20.00 - 21.00 0.0
1637960400 22.00 21.00 - 22.00 0.0
1637964000 23.00 22.00 - 23.00 0.0
1637967600 0.00 23.00 - 0.00 0.0
1637971200 1.00 0.00 - 1.00 0.0
1637974800 2.00 1.00 - 2.00 0.0
1637978400 3.00 2.00 - 3.00 0.0
1637982000 4.00 3.00 - 4.00 0.3
1637985600 5.00 4.00 - 5.00 0.2

Wind

Windrichtung Böen Mittelwind
° km/h km/h
1637902800 6.00 5.00 - 6.00
1637906400 7.00 6.00 - 7.00
1637910000 8.00 7.00 - 8.00
1637913600 9.00 8.00 - 9.00
1637917200 10.00 9.00 - 10.00
1637920800 11.00 10.00 - 11.00
1637924400 12.00 11.00 - 12.00
1637928000 13.00 12.00 - 13.00 20° 9 2
1637931600 14.00 13.00 - 14.00 umlaufend 8 2
1637935200 15.00 14.00 - 15.00 190° 12 4
1637938800 16.00 15.00 - 16.00 190° 18 9
1637942400 17.00 16.00 - 17.00 210° 12 5
1637946000 18.00 17.00 - 18.00 240° 40 23
1637949600 19.00 18.00 - 19.00 240° 31 20
1637953200 20.00 19.00 - 20.00 240° 36 21
1637956800 21.00 20.00 - 21.00 230° 35 20
1637960400 22.00 21.00 - 22.00 240° 41 22
1637964000 23.00 22.00 - 23.00 240° 43 23
1637967600 0.00 23.00 - 0.00 230° 48 25
1637971200 1.00 0.00 - 1.00 230° 51 29
1637974800 2.00 1.00 - 2.00 230° 60 32
1637978400 3.00 2.00 - 3.00 240° 60 26
1637982000 4.00 3.00 - 4.00 230° 65 32
1637985600 5.00 4.00 - 5.00 230° 53 28

Ihre Wetterstation

Fehlt Ihre Wetterstation auf unserem Portal?

Schreiben Sie an network@meteonews.ch

Klima

Wann ist es am wärmsten? Wann regnet es am wenigsten? Unsere Klimadaten geben Auskunft.